createdAt,value
2023-04-16T00:00:33.200Z,82.34
2023-04-16T00:03:00.237Z,82.58
2023-04-16T00:05:27.725Z,82.61
2023-04-16T00:07:54.649Z,82.72
2023-04-16T00:10:21.764Z,82.62
2023-04-16T00:12:50.697Z,82.68
2023-04-16T00:15:17.629Z,82.71
2023-04-16T00:17:44.702Z,82.38
2023-04-16T00:20:14.270Z,82.79
2023-04-16T00:22:41.305Z,82.93
2023-04-16T00:25:08.348Z,83.23
2023-04-16T00:27:35.342Z,83.30
2023-04-16T00:30:07.815Z,83.03
2023-04-16T00:32:37.377Z,83.15
2023-04-16T00:35:04.531Z,82.90
2023-04-16T00:37:31.483Z,82.97
2023-04-16T00:39:58.421Z,83.31
2023-04-16T00:42:25.855Z,83.04
2023-04-16T00:44:52.706Z,83.02
2023-04-16T00:47:21.598Z,83.18
2023-04-16T00:49:49.013Z,83.58
2023-04-16T00:52:16.209Z,83.46
2023-04-16T00:54:43.377Z,83.69
2023-04-16T00:57:12.809Z,83.76
2023-04-16T00:59:42.553Z,83.68
2023-04-16T01:02:09.506Z,83.44
2023-04-16T01:04:36.795Z,83.62
2023-04-16T01:07:03.698Z,83.46
2023-04-16T01:09:30.420Z,83.80
2023-04-16T01:11:58.857Z,84.34
2023-04-16T01:14:25.738Z,84.42
2023-04-16T01:16:52.632Z,84.07
2023-04-16T01:19:19.681Z,84.18
2023-04-16T01:21:51.753Z,84.24
2023-04-16T01:24:18.730Z,84.50
2023-04-16T01:26:45.637Z,84.43
2023-04-16T01:29:14.879Z,84.80
2023-04-16T01:31:41.759Z,84.80
2023-04-16T01:34:08.758Z,84.95
2023-04-16T01:36:35.815Z,84.53
2023-04-16T01:39:02.987Z,84.84
2023-04-16T01:41:35.012Z,84.80
2023-04-16T01:44:06.564Z,85.09
2023-04-16T01:46:35.612Z,85.31
2023-04-16T01:49:05.634Z,85.08
2023-04-16T01:51:32.370Z,85.46
2023-04-16T01:53:59.152Z,85.24
2023-04-16T01:56:28.402Z,85.63
2023-04-16T01:58:55.293Z,85.22
2023-04-16T02:01:22.551Z,85.67
2023-04-16T02:03:49.792Z,86.01
2023-04-16T02:06:17.141Z,85.62
2023-04-16T02:08:44.223Z,85.79
2023-04-16T02:11:11.190Z,86.00
2023-04-16T02:13:38.126Z,86.31
2023-04-16T02:16:05.206Z,86.31
2023-04-16T02:18:31.937Z,86.56
2023-04-16T02:21:02.602Z,86.78
2023-04-16T02:23:29.454Z,86.81
2023-04-16T02:25:56.286Z,86.95
2023-04-16T02:28:27.854Z,86.64
2023-04-16T02:30:54.872Z,86.88
2023-04-16T02:33:26.053Z,87.12
2023-04-16T02:35:53.345Z,87.30
2023-04-16T02:38:20.167Z,86.89
2023-04-16T02:40:51.587Z,87.18
2023-04-16T02:43:21.216Z,87.27
2023-04-16T02:45:48.014Z,87.65
2023-04-16T02:48:14.800Z,87.43
2023-04-16T02:50:41.612Z,87.61
2023-04-16T02:53:08.326Z,87.40
2023-04-16T02:55:37.445Z,87.96
2023-04-16T02:58:04.483Z,87.56
2023-04-16T03:00:34.147Z,88.14
2023-04-16T03:03:00.861Z,87.84
2023-04-16T03:05:27.721Z,87.95
2023-04-16T03:07:57.492Z,88.02
2023-04-16T03:10:26.835Z,88.38
2023-04-16T03:12:53.599Z,88.59
2023-04-16T03:15:20.334Z,88.62
2023-04-16T03:17:47.487Z,88.74
2023-04-16T03:20:14.679Z,88.62
2023-04-16T03:22:43.830Z,88.57
2023-04-16T03:25:13.279Z,88.27
2023-04-16T03:27:40.469Z,88.42
2023-04-16T03:30:08.626Z,88.78
2023-04-16T03:32:36.321Z,88.31
2023-04-16T03:35:07.446Z,88.87
2023-04-16T03:37:36.698Z,88.96
2023-04-16T03:40:05.838Z,88.40
2023-04-16T03:42:32.785Z,88.64
2023-04-16T03:45:01.712Z,88.48
2023-04-16T03:47:28.589Z,88.84
2023-04-16T03:49:57.569Z,88.75
2023-04-16T03:52:27.201Z,88.81
2023-04-16T03:54:54.086Z,89.09
2023-04-16T03:57:22.912Z,89.10
2023-04-16T03:59:49.635Z,89.34
2023-04-16T04:02:18.781Z,88.79
2023-04-16T04:04:47.958Z,89.46
2023-04-16T04:07:16.323Z,89.16
2023-04-16T04:09:45.728Z,89.22
2023-04-16T04:12:12.812Z,89.48
2023-04-16T04:14:40.305Z,89.67
2023-04-16T04:17:08.559Z,89.87
2023-04-16T04:19:35.529Z,89.43
2023-04-16T04:22:05.025Z,89.38
2023-04-16T04:24:31.750Z,89.62
2023-04-16T04:27:02.068Z,89.95
2023-04-16T04:29:29.030Z,89.46
2023-04-16T04:31:56.109Z,89.49
2023-04-16T04:34:22.982Z,90.09
2023-04-16T04:36:49.622Z,89.92
2023-04-16T04:39:16.518Z,89.82
2023-04-16T04:41:43.320Z,90.31
2023-04-16T04:44:10.134Z,89.90
2023-04-16T04:46:37.060Z,90.26
2023-04-16T04:49:03.786Z,90.37
2023-04-16T04:51:33.552Z,90.17
2023-04-16T04:54:02.497Z,90.03
2023-04-16T04:56:29.354Z,89.97
2023-04-16T04:58:56.484Z,90.46
2023-04-16T05:01:23.562Z,90.46
2023-04-16T05:03:50.596Z,90.20
2023-04-16T05:06:17.751Z,90.55
2023-04-16T05:08:44.587Z,90.73
2023-04-16T05:11:11.778Z,90.89
2023-04-16T05:13:41.847Z,90.76
2023-04-16T05:16:08.786Z,90.92
2023-04-16T05:18:38.225Z,90.71
2023-04-16T05:21:07.583Z,91.10
2023-04-16T05:23:34.495Z,91.04
2023-04-16T05:26:03.616Z,90.91
2023-04-16T05:28:31.167Z,91.25
2023-04-16T05:31:00.354Z,91.20
2023-04-16T05:33:27.239Z,91.21
2023-04-16T05:35:54.358Z,91.18
2023-04-16T05:38:21.225Z,91.66
2023-04-16T05:40:48.124Z,91.53
2023-04-16T05:43:15.022Z,91.59
2023-04-16T05:45:44.193Z,91.72
2023-04-16T05:48:12.888Z,91.49
2023-04-16T05:50:39.824Z,91.78
2023-04-16T05:53:12.770Z,91.95
2023-04-16T05:55:42.338Z,91.75
2023-04-16T05:58:12.429Z,91.94
2023-04-16T06:00:41.850Z,92.12
2023-04-16T06:03:13.929Z,91.85
2023-04-16T06:05:41.336Z,91.86
2023-04-16T06:08:11.589Z,92.11
2023-04-16T06:10:38.560Z,92.46
2023-04-16T06:13:07.949Z,91.67
2023-04-16T06:15:35.052Z,92.02
2023-04-16T06:18:07.578Z,92.36
2023-04-16T06:20:34.748Z,92.50
2023-04-16T06:23:10.989Z,92.00
2023-04-16T06:25:38.002Z,92.41
2023-04-16T06:28:09.541Z,92.03
2023-04-16T06:30:36.665Z,92.12
2023-04-16T06:33:11.859Z,92.27
2023-04-16T06:35:41.778Z,92.38
2023-04-16T06:38:11.874Z,92.71
2023-04-16T06:40:42.633Z,92.69
2023-04-16T06:43:15.739Z,92.77
2023-04-16T06:45:53.762Z,92.56
2023-04-16T06:51:13.455Z,92.93
2023-04-16T06:54:45.123Z,93.08
2023-04-16T06:57:54.455Z,92.44
2023-04-16T07:00:44.442Z,92.99
2023-04-16T07:03:12.553Z,92.69
2023-04-16T07:08:44.843Z,93.13
2023-04-16T07:11:17.798Z,92.91
2023-04-16T07:13:44.935Z,93.25
2023-04-16T07:16:12.009Z,93.04
2023-04-16T07:18:41.485Z,93.03
2023-04-16T07:21:08.523Z,93.06
2023-04-16T07:23:35.554Z,93.47
2023-04-16T07:26:10.705Z,93.45
2023-04-16T07:28:43.081Z,93.13
2023-04-16T07:31:10.754Z,93.43
2023-04-16T07:33:37.691Z,93.22
2023-04-16T07:36:04.913Z,93.52
2023-04-16T07:38:34.079Z,93.26
2023-04-16T07:41:01.567Z,93.81
2023-04-16T07:43:28.373Z,93.81
2023-04-16T07:45:55.419Z,93.57
2023-04-16T07:48:22.292Z,93.50
2023-04-16T07:50:50.467Z,93.38
2023-04-16T07:53:24.602Z,93.55
2023-04-16T07:55:51.634Z,93.29
2023-04-16T07:58:18.504Z,93.54
2023-04-16T08:00:45.784Z,93.63
2023-04-16T08:03:13.010Z,93.43
2023-04-16T08:05:48.013Z,93.44
2023-04-16T08:08:18.265Z,93.30
2023-04-16T08:10:45.171Z,93.29
2023-04-16T08:13:12.008Z,93.65
2023-04-16T08:15:42.084Z,93.27
2023-04-16T08:18:13.069Z,93.45
2023-04-16T08:20:40.183Z,93.21
2023-04-16T08:23:07.180Z,93.18
2023-04-16T08:25:33.770Z,93.52
2023-04-16T08:28:02.855Z,93.69
2023-04-16T08:30:29.546Z,93.77
2023-04-16T08:32:58.840Z,93.63
2023-04-16T08:35:30.521Z,93.84
2023-04-16T08:37:57.999Z,93.57
2023-04-16T08:40:29.044Z,93.60
2023-04-16T08:42:59.499Z,93.61
2023-04-16T08:45:27.783Z,93.67
2023-04-16T08:47:54.447Z,93.69
2023-04-16T08:50:26.106Z,93.65
2023-04-16T08:52:58.197Z,93.72
2023-04-16T08:55:37.831Z,93.36
2023-04-16T08:58:15.936Z,93.71
2023-04-16T09:00:43.799Z,93.45
2023-04-16T09:03:15.347Z,93.38
2023-04-16T09:05:42.834Z,93.27
2023-04-16T09:08:11.705Z,92.94
2023-04-16T09:10:38.374Z,93.14
2023-04-16T09:13:05.071Z,93.07
2023-04-16T09:15:34.984Z,93.05
2023-04-16T09:18:01.800Z,93.01
2023-04-16T09:20:30.915Z,93.30
2023-04-16T09:22:57.543Z,93.17
2023-04-16T09:25:25.120Z,93.52
2023-04-16T09:27:51.871Z,93.26
2023-04-16T09:30:28.352Z,93.44
2023-04-16T09:33:23.409Z,94.87
2023-04-16T09:35:53.130Z,94.39
2023-04-16T09:38:22.385Z,94.14
2023-04-16T09:41:06.215Z,93.92
2023-04-16T09:43:32.820Z,93.38
2023-04-16T09:45:59.358Z,93.62
2023-04-16T09:48:30.942Z,93.38
2023-04-16T09:50:59.095Z,93.55
2023-04-16T09:53:31.797Z,92.96
2023-04-16T09:55:58.485Z,93.59
2023-04-16T09:58:27.474Z,93.61
2023-04-16T10:01:10.977Z,93.39
2023-04-16T10:03:40.036Z,93.79
2023-04-16T10:06:06.802Z,93.30
2023-04-16T10:08:33.416Z,93.35
2023-04-16T10:11:02.516Z,93.00
2023-04-16T10:13:32.293Z,92.96
2023-04-16T10:15:59.077Z,93.08
2023-04-16T10:18:29.229Z,93.02
2023-04-16T10:21:00.119Z,92.96
2023-04-16T10:23:26.997Z,92.76
2023-04-16T10:25:57.379Z,92.80
2023-04-16T10:28:29.121Z,93.14
2023-04-16T10:31:00.189Z,92.94
2023-04-16T10:33:36.504Z,93.03
2023-04-16T10:36:26.549Z,92.62
2023-04-16T10:38:58.662Z,92.60
2023-04-16T10:41:28.734Z,92.52
2023-04-16T10:44:10.009Z,92.75
2023-04-16T10:46:39.216Z,92.50
2023-04-16T10:49:16.670Z,92.38
2023-04-16T10:51:53.656Z,92.37
2023-04-16T10:54:26.547Z,92.24
2023-04-16T10:56:56.327Z,91.97
2023-04-16T10:59:30.199Z,92.08
2023-04-16T11:02:01.652Z,92.03
2023-04-16T11:04:40.287Z,92.04
2023-04-16T11:07:17.503Z,92.06
2023-04-16T11:09:47.329Z,91.66
2023-04-16T11:12:17.025Z,91.35
2023-04-16T11:14:50.022Z,91.40
2023-04-16T11:17:17.351Z,91.39
2023-04-16T11:19:44.354Z,91.31
2023-04-16T11:22:17.175Z,91.10
2023-04-16T11:24:50.033Z,90.62
2023-04-16T11:27:16.684Z,90.69
2023-04-16T11:29:47.540Z,90.87
2023-04-16T11:32:24.526Z,90.70
2023-04-16T11:34:51.204Z,90.67
2023-04-16T11:37:22.281Z,90.77
2023-04-16T11:39:50.864Z,90.75
2023-04-16T11:42:24.139Z,91.21
2023-04-16T11:45:00.402Z,90.78
2023-04-16T11:47:30.877Z,89.97
2023-04-16T11:49:58.685Z,90.26
2023-04-16T11:52:33.656Z,90.20
2023-04-16T11:55:00.468Z,90.15
2023-04-16T11:57:33.653Z,90.09
2023-04-16T12:00:01.524Z,89.92
2023-04-16T12:02:36.650Z,89.85
2023-04-16T12:05:08.561Z,89.77
2023-04-16T12:07:48.384Z,89.74
2023-04-16T12:10:14.982Z,89.83
2023-04-16T12:12:43.805Z,89.82
2023-04-16T12:15:11.253Z,90.14
2023-04-16T12:17:38.941Z,90.01
2023-04-16T12:20:09.995Z,89.86
2023-04-16T12:22:50.843Z,89.93
2023-04-16T12:25:18.260Z,89.53
2023-04-16T12:27:56.052Z,89.64
2023-04-16T12:30:26.301Z,89.53
2023-04-16T12:33:16.870Z,89.32
2023-04-16T12:35:44.100Z,88.95
2023-04-16T12:38:11.907Z,89.58
2023-04-16T12:40:38.810Z,89.13
2023-04-16T12:43:05.571Z,88.92
2023-04-16T12:45:32.240Z,88.72
2023-04-16T12:47:59.459Z,88.72
2023-04-16T12:50:28.562Z,88.10
2023-04-16T12:52:56.574Z,87.92
2023-04-16T12:55:23.208Z,87.60
2023-04-16T12:57:55.226Z,87.54
2023-04-16T13:00:22.096Z,87.33
2023-04-16T13:02:48.859Z,88.03
2023-04-16T13:05:16.688Z,86.97
2023-04-16T13:07:43.493Z,87.10
2023-04-16T13:10:10.887Z,86.90
2023-04-16T13:12:39.877Z,87.06
2023-04-16T13:15:06.945Z,86.86
2023-04-16T13:17:33.523Z,87.00
2023-04-16T13:20:00.218Z,86.63
2023-04-16T13:22:26.811Z,86.65
2023-04-16T13:24:53.445Z,86.66
2023-04-16T13:27:22.432Z,86.70
2023-04-16T13:29:48.997Z,86.61
2023-04-16T13:32:18.976Z,86.92
2023-04-16T13:34:45.713Z,86.63
2023-04-16T13:37:15.358Z,87.01
2023-04-16T13:39:45.172Z,86.88
2023-04-16T13:42:11.712Z,87.00
2023-04-16T13:44:38.361Z,86.84
2023-04-16T13:47:05.261Z,86.97
2023-04-16T13:49:36.084Z,86.70
2023-04-16T13:52:03.101Z,86.73
2023-04-16T13:54:32.261Z,86.87
2023-04-16T13:56:58.840Z,86.83
2023-04-16T13:59:26.288Z,86.85
2023-04-16T14:01:57.754Z,86.63
2023-04-16T14:04:24.546Z,86.80
2023-04-16T14:06:51.274Z,86.99
2023-04-16T14:09:17.831Z,86.77
2023-04-16T14:11:44.484Z,86.66
2023-04-16T14:14:12.386Z,86.84
2023-04-16T14:16:39.139Z,86.66
2023-04-16T14:19:08.231Z,86.42
2023-04-16T14:21:35.060Z,86.33
2023-04-16T14:24:02.085Z,86.26
2023-04-16T14:26:28.794Z,86.28
2023-04-16T14:28:55.583Z,85.87
2023-04-16T14:31:27.216Z,85.55
2023-04-16T14:33:56.523Z,85.26
2023-04-16T14:36:23.199Z,85.32
2023-04-16T14:38:51.838Z,84.87
2023-04-16T14:41:18.541Z,84.71
2023-04-16T14:43:47.401Z,84.64
2023-04-16T14:46:17.809Z,84.46
2023-04-16T14:48:44.981Z,84.66
2023-04-16T14:51:11.707Z,83.91
2023-04-16T14:53:40.783Z,83.59
2023-04-16T14:56:13.664Z,83.71
2023-04-16T14:58:40.261Z,83.25
2023-04-16T15:01:06.930Z,82.98
2023-04-16T15:03:33.969Z,82.49
2023-04-16T15:06:02.508Z,82.59
2023-04-16T15:08:29.130Z,82.22
2023-04-16T15:10:55.716Z,81.74
2023-04-16T15:13:22.415Z,81.81
2023-04-16T15:15:51.838Z,81.62
2023-04-16T15:18:18.445Z,81.60
2023-04-16T15:20:45.156Z,81.53
2023-04-16T15:23:14.023Z,81.86
2023-04-16T15:25:40.767Z,81.93
2023-04-16T15:28:07.340Z,82.22
2023-04-16T15:30:34.143Z,82.17
2023-04-16T15:33:01.123Z,82.09
2023-04-16T15:35:27.758Z,82.20
2023-04-16T15:37:59.057Z,82.22
2023-04-16T15:40:25.742Z,82.01
2023-04-16T15:42:54.550Z,82.03
2023-04-16T15:45:21.450Z,82.07
2023-04-16T15:47:51.268Z,82.12
2023-04-16T15:50:19.433Z,81.75
2023-04-16T15:52:46.946Z,81.82
2023-04-16T15:55:14.990Z,81.95
2023-04-16T15:57:44.155Z,82.02
2023-04-16T16:00:17.580Z,82.16
2023-04-16T16:02:46.658Z,82.15
2023-04-16T16:05:14.500Z,81.93
2023-04-16T16:07:42.368Z,81.70
2023-04-16T16:10:13.549Z,81.50
2023-04-16T16:12:41.279Z,81.51
2023-04-16T16:15:08.409Z,81.45
2023-04-16T16:17:35.097Z,81.21
2023-04-16T16:20:01.758Z,81.26
2023-04-16T16:22:28.559Z,81.54
2023-04-16T16:24:56.385Z,81.59
2023-04-16T16:27:23.137Z,81.82
2023-04-16T16:29:52.274Z,81.97
2023-04-16T16:32:18.998Z,82.29
2023-04-16T16:34:45.982Z,82.47
2023-04-16T16:37:12.585Z,82.36
2023-04-16T16:39:39.192Z,82.71
2023-04-16T16:42:10.689Z,82.78
2023-04-16T16:44:39.730Z,82.92
2023-04-16T16:47:06.569Z,83.13
2023-04-16T16:49:33.268Z,83.46
2023-04-16T16:52:02.219Z,83.29
2023-04-16T16:54:31.348Z,83.58
2023-04-16T16:56:58.766Z,83.62
2023-04-16T16:59:27.779Z,83.68
2023-04-16T17:01:56.734Z,83.76
2023-04-16T17:04:23.662Z,83.75
2023-04-16T17:06:50.849Z,83.79
2023-04-16T17:09:17.558Z,83.51
2023-04-16T17:11:46.444Z,83.60
2023-04-16T17:14:13.030Z,83.71
2023-04-16T17:16:42.064Z,84.08
2023-04-16T17:19:12.370Z,83.72
2023-04-16T17:21:39.049Z,83.70
2023-04-16T17:24:07.878Z,84.11
2023-04-16T17:26:34.476Z,84.28
2023-04-16T17:29:01.191Z,84.19
2023-04-16T17:31:27.913Z,84.24
2023-04-16T17:33:56.894Z,84.22
2023-04-16T17:36:23.658Z,84.21
2023-04-16T17:38:50.663Z,84.29
2023-04-16T17:41:17.381Z,84.59
2023-04-16T17:43:44.028Z,84.40
2023-04-16T17:46:13.121Z,84.60
2023-04-16T17:48:39.823Z,84.55
2023-04-16T17:51:11.412Z,84.54
2023-04-16T17:53:38.231Z,84.71
2023-04-16T17:56:05.070Z,85.02
2023-04-16T17:58:35.023Z,84.83
2023-04-16T18:01:05.213Z,84.52
2023-04-16T18:03:33.336Z,84.82
2023-04-16T18:06:00.739Z,84.67
2023-04-16T18:08:30.006Z,84.68
2023-04-16T18:10:58.939Z,84.96
2023-04-16T18:13:25.715Z,85.02
2023-04-16T18:15:54.622Z,85.25
2023-04-16T18:18:21.438Z,84.97
2023-04-16T18:20:48.190Z,85.24
2023-04-16T18:23:17.095Z,85.37
2023-04-16T18:25:44.599Z,85.34
2023-04-16T18:28:13.782Z,85.91
2023-04-16T18:30:41.027Z,85.30
2023-04-16T18:33:38.273Z,85.42
2023-04-16T18:35:54.148Z,85.93
2023-04-16T18:38:20.750Z,85.73
2023-04-16T18:40:49.921Z,85.82
2023-04-16T18:43:19.198Z,85.99
2023-04-16T18:45:45.797Z,86.12
2023-04-16T18:48:12.406Z,85.89
2023-04-16T18:50:38.995Z,86.01
2023-04-16T18:53:05.664Z,86.04
2023-04-16T18:55:34.428Z,85.86
2023-04-16T18:58:01.286Z,85.69
2023-04-16T19:00:27.902Z,86.23
2023-04-16T19:02:54.610Z,85.56
2023-04-16T19:05:22.961Z,85.44
2023-04-16T19:07:49.511Z,85.73
2023-04-16T19:10:16.316Z,85.67
2023-04-16T19:12:47.703Z,85.91
2023-04-16T19:15:14.860Z,85.73
2023-04-16T19:17:43.800Z,85.35
2023-04-16T19:20:11.614Z,85.59
2023-04-16T19:22:38.695Z,85.45
2023-04-16T19:25:06.211Z,85.63
2023-04-16T19:27:32.858Z,85.64
2023-04-16T19:29:59.715Z,85.66
2023-04-16T19:32:26.491Z,85.63
2023-04-16T19:34:53.104Z,85.91
2023-04-16T19:37:19.674Z,85.77
2023-04-16T19:39:46.261Z,85.95
2023-04-16T19:42:12.892Z,86.05
2023-04-16T19:44:41.956Z,85.97
2023-04-16T19:47:08.861Z,85.62
2023-04-16T19:49:38.572Z,85.99
2023-04-16T19:52:05.499Z,85.78
2023-04-16T19:54:33.906Z,85.85
2023-04-16T19:57:01.974Z,85.75
2023-04-16T19:59:29.306Z,85.71
2023-04-16T20:01:56.264Z,85.92
2023-04-16T20:04:23.303Z,86.33
2023-04-16T20:06:50.324Z,86.15
2023-04-16T20:09:20.430Z,86.20
2023-04-16T20:11:50.053Z,86.50
2023-04-16T20:14:17.480Z,86.08
2023-04-16T20:16:47.529Z,86.30
2023-04-16T20:19:17.266Z,86.31
2023-04-16T20:21:45.738Z,86.65
2023-04-16T20:24:12.888Z,86.59
2023-04-16T20:26:39.870Z,86.95
2023-04-16T20:29:07.056Z,86.41
2023-04-16T20:31:34.013Z,86.88
2023-04-16T20:34:01.027Z,86.82
2023-04-16T20:36:29.992Z,86.59
2023-04-16T20:38:56.764Z,86.55
2023-04-16T20:41:27.451Z,86.67
2023-04-16T20:43:54.715Z,86.99
2023-04-16T20:46:24.507Z,86.82
2023-04-16T20:48:52.150Z,86.79
2023-04-16T20:51:18.973Z,87.14
2023-04-16T20:53:46.505Z,87.16
2023-04-16T20:56:15.178Z,88.12
2023-04-16T20:58:44.491Z,88.02
2023-04-16T21:01:11.657Z,87.63
2023-04-16T21:03:40.897Z,87.80
2023-04-16T21:06:12.916Z,87.25
2023-04-16T21:08:39.724Z,87.19
2023-04-16T21:11:06.538Z,87.70
2023-04-16T21:13:33.658Z,87.59
2023-04-16T21:16:00.529Z,87.66
2023-04-16T21:18:27.473Z,87.84
2023-04-16T21:20:54.218Z,87.86
2023-04-16T21:23:21.254Z,87.73
2023-04-16T21:25:50.965Z,87.81
2023-04-16T21:28:18.095Z,87.93
2023-04-16T21:30:45.081Z,87.79
2023-04-16T21:33:13.238Z,88.10
2023-04-16T21:35:41.000Z,88.06
2023-04-16T21:38:10.269Z,88.12
2023-04-16T21:40:37.153Z,88.32
2023-04-16T21:43:04.050Z,88.35
2023-04-16T21:45:31.277Z,88.15
2023-04-16T21:47:58.175Z,88.74
2023-04-16T21:50:27.622Z,88.80
2023-04-16T21:52:56.805Z,88.64
2023-04-16T21:55:26.333Z,88.92
2023-04-16T21:57:53.239Z,88.63
2023-04-16T22:00:24.068Z,88.89
2023-04-16T22:02:56.143Z,89.38
2023-04-16T22:05:25.893Z,88.79
2023-04-16T22:07:53.308Z,88.83
2023-04-16T22:10:20.395Z,89.27
2023-04-16T22:12:53.759Z,89.36
2023-04-16T22:15:20.961Z,89.47
2023-04-16T22:17:50.829Z,88.92
2023-04-16T22:20:18.001Z,89.32
2023-04-16T22:22:47.298Z,89.20
2023-04-16T22:25:16.772Z,89.59
2023-04-16T22:27:46.338Z,89.35
2023-04-16T22:30:13.780Z,89.60
2023-04-16T22:32:40.901Z,89.33
2023-04-16T22:35:08.302Z,89.32
2023-04-16T22:37:37.375Z,89.64
2023-04-16T22:40:08.685Z,89.10
2023-04-16T22:42:36.015Z,89.80
2023-04-16T22:45:03.411Z,89.51
2023-04-16T22:47:30.473Z,89.93
2023-04-16T22:49:57.544Z,89.89
2023-04-16T22:52:24.386Z,89.88
2023-04-16T22:54:51.236Z,89.89
2023-04-16T22:57:21.266Z,89.87
2023-04-16T22:59:50.530Z,89.73
2023-04-16T23:02:18.640Z,89.33
2023-04-16T23:04:48.120Z,89.92
2023-04-16T23:07:15.172Z,89.94
2023-04-16T23:09:44.936Z,90.20
2023-04-16T23:12:11.612Z,90.28
2023-04-16T23:14:38.639Z,90.26
2023-04-16T23:17:07.716Z,90.21
2023-04-16T23:19:34.424Z,90.27
2023-04-16T23:22:04.201Z,90.03
2023-04-16T23:24:31.247Z,90.41
2023-04-16T23:26:58.118Z,90.52
2023-04-16T23:29:25.199Z,90.75
2023-04-16T23:31:54.376Z,90.87
2023-04-16T23:34:24.006Z,90.22
2023-04-16T23:36:51.122Z,90.30
2023-04-16T23:39:18.116Z,90.35
2023-04-16T23:41:45.285Z,90.30
2023-04-16T23:44:12.098Z,90.55
2023-04-16T23:46:40.747Z,91.19
2023-04-16T23:49:07.642Z,90.38
2023-04-16T23:51:34.518Z,90.62
2023-04-16T23:54:03.585Z,90.83
2023-04-16T23:56:32.744Z,90.60
2023-04-16T23:59:00.045Z,90.59
